Aviation Digital Data Service (ADDS)

Output produced by METARs form (1324 UTC 17 September 2019)
found at http://www.aviationweather.gov/metar/data/
 
VTUD 171300Z 10003KT 9000 NSC 30/24 Q1007 NOSIG
VTUD 171200Z 08003KT 9000 NSC 31/23 Q1007 NOSIG
VTUD 171100Z 07005KT 9000 FEW030 33/22 Q1006 NOSIG
VTUD 171000Z 08006KT 9999 FEW045 33/23 Q1006 NOSIG
VTUD 170900Z 04005KT 350V100 9999 FEW045 34/23 Q1006 NOSIG
VTUD 170800Z 36007KT 280V040 9999 SCT045 34/23 Q1006 NOSIG
VTUD 170700Z VRB03KT 9999 FEW045 34/24 Q1007 NOSIG
VTUD 170600Z 03005KT 350V100 9999 SCT040 33/23 Q1008 NOSIG
VTUD 170500Z 11005KT 040V160 9999 SCT040 33/23 Q1009 NOSIG
VTUD 170400Z VRB03KT 9999 SCT039 32/25 Q1010 NOSIG
VTUD 170300Z VRB03KT 9999 FEW020 31/25 Q1010 NOSIG
VTUD 170200Z 14006KT 110V170 9999 FEW020 29/25 Q1010 NOSIG
VTUD 170100Z 07007KT 040V110 9999 FEW020 29/27 Q1010 NOSIG
VTUD 170000Z 00000KT 9999 SCT040 27/27 Q1009 NOSIG
VTUD 162300Z 00000KT 8000 NSC 27/27 Q1008 NOSIG
VTUD 162200Z 25001KT 8000 NSC 27/27 Q1008 NOSIG
VTUD 161500Z VRB02KT CAVOK 28/25 Q1008 NOSIG
VTUD 161400Z 25002KT CAVOK 29/25 Q1007 NOSIG
TAF VTUD 171100Z 1712/1812 08005KT 9999 FEW025 SCT100 
     TEMPO 1809/1812 VRB10KT 5000 TSRA FEW018CB BKN020 BKN080